createdAt,value
2017-10-01T00:01:38.515Z,14.60
2017-10-01T00:04:05.579Z,20.37
2017-10-01T00:06:32.227Z,19.37
2017-10-01T00:08:58.904Z,19.10
2017-10-01T00:11:25.575Z,22.03
2017-10-01T00:13:52.221Z,20.50
2017-10-01T00:16:19.190Z,15.57
2017-10-01T00:18:45.848Z,19.77
2017-10-01T00:21:12.513Z,18.10
2017-10-01T00:23:39.185Z,21.47
2017-10-01T00:26:05.856Z,17.30
2017-10-01T00:28:32.532Z,17.70
2017-10-01T00:30:59.229Z,13.30
2017-10-01T00:33:25.881Z,22.50
2017-10-01T00:35:52.522Z,17.00
2017-10-01T00:38:19.217Z,19.87
2017-10-01T00:40:45.872Z,18.30
2017-10-01T00:43:12.529Z,15.83
2017-10-01T00:45:39.197Z,17.40
2017-10-01T00:48:05.844Z,33.70
2017-10-01T00:50:32.516Z,19.33
2017-10-01T00:52:59.209Z,16.87
2017-10-01T00:55:25.980Z,17.60
2017-10-01T00:57:52.635Z,17.57
2017-10-01T01:00:19.283Z,18.93
2017-10-01T01:02:45.951Z,23.37
2017-10-01T01:05:12.596Z,19.57
2017-10-01T01:07:39.566Z,25.00
2017-10-01T01:10:06.217Z,22.20
2017-10-01T01:12:32.872Z,17.20
2017-10-01T01:14:59.563Z,17.00
2017-10-01T01:17:26.231Z,19.47
2017-10-01T01:19:52.897Z,15.20
2017-10-01T01:22:19.574Z,13.77
2017-10-01T01:24:46.272Z,24.67
2017-10-01T01:27:12.916Z,20.07
2017-10-01T01:29:39.561Z,17.53
2017-10-01T01:32:06.235Z,17.50
2017-10-01T01:34:32.899Z,14.20
2017-10-01T01:36:59.571Z,18.13
2017-10-01T01:39:26.351Z,20.47
2017-10-01T01:41:53.002Z,22.97
2017-10-01T01:44:19.653Z,20.40
2017-10-01T01:46:46.347Z,19.63
2017-10-01T01:55:55.599Z,16.80
2017-10-01T01:58:22.360Z,24.33
2017-10-01T02:00:49.008Z,16.40
2017-10-01T02:03:15.660Z,21.17
2017-10-01T02:05:42.711Z,16.23
2017-10-01T02:08:09.622Z,21.93
2017-10-01T02:10:36.305Z,22.03
2017-10-01T02:13:02.980Z,15.70
2017-10-01T02:15:29.650Z,16.13
2017-10-01T02:17:56.331Z,18.03
2017-10-01T02:20:22.987Z,20.53
2017-10-01T02:22:49.659Z,16.73
2017-10-01T02:25:16.336Z,19.40
2017-10-01T02:27:42.985Z,16.33
2017-10-01T02:30:09.664Z,21.00
2017-10-01T02:32:36.340Z,19.77
2017-10-01T02:35:03.016Z,18.60
2017-10-01T02:37:29.668Z,24.23
2017-10-01T02:39:56.355Z,22.60
2017-10-01T02:42:23.017Z,20.23
2017-10-01T02:44:49.767Z,16.57
2017-10-01T02:47:16.452Z,19.50
2017-10-01T02:56:25.768Z,19.87
2017-10-01T02:58:52.415Z,19.53
2017-10-01T03:01:19.099Z,31.83
2017-10-01T03:03:46.119Z,18.63
2017-10-01T03:06:12.767Z,19.40
2017-10-01T03:08:39.420Z,19.10
2017-10-01T03:11:06.104Z,18.87
2017-10-01T03:13:32.748Z,18.37
2017-10-01T03:15:59.416Z,21.83
2017-10-01T03:18:26.078Z,18.37
2017-10-01T03:20:52.739Z,16.80
2017-10-01T03:23:19.431Z,16.97
2017-10-01T03:25:46.077Z,20.20
2017-10-01T03:28:12.744Z,21.93
2017-10-01T03:30:39.409Z,16.60
2017-10-01T03:33:06.114Z,17.60
2017-10-01T03:35:32.861Z,17.83
2017-10-01T03:37:59.508Z,16.27
2017-10-01T03:40:26.348Z,15.73
2017-10-01T03:42:53.001Z,17.43
2017-10-01T03:45:19.640Z,19.80
2017-10-01T03:47:46.579Z,25.73
2017-10-01T03:50:13.224Z,22.03
2017-10-01T03:52:40.165Z,17.40
2017-10-01T03:55:07.110Z,24.83
2017-10-01T03:57:35.619Z,16.60
2017-10-01T04:00:02.269Z,16.33
2017-10-01T04:02:28.945Z,34.63
2017-10-01T04:04:55.596Z,26.13
2017-10-01T04:07:22.573Z,19.53
2017-10-01T04:09:49.220Z,17.47
2017-10-01T04:12:15.860Z,22.77
2017-10-01T04:14:42.799Z,18.20
2017-10-01T04:17:09.450Z,24.53
2017-10-01T04:19:36.099Z,15.90
2017-10-01T04:22:02.775Z,15.97
2017-10-01T04:24:29.420Z,24.57
2017-10-01T04:26:56.411Z,16.77
2017-10-01T04:29:23.059Z,17.93
2017-10-01T04:31:49.709Z,18.27
2017-10-01T04:34:16.382Z,25.20
2017-10-01T04:36:43.178Z,40.27
2017-10-01T04:39:09.840Z,21.23
2017-10-01T04:41:36.497Z,19.30
2017-10-01T04:44:03.167Z,18.13
2017-10-01T04:46:29.815Z,24.10
2017-10-01T04:48:56.483Z,28.53
2017-10-01T04:51:23.165Z,15.70
2017-10-01T04:53:49.812Z,18.13
2017-10-01T04:56:16.486Z,17.53
2017-10-01T04:58:43.142Z,20.57
2017-10-01T05:01:10.488Z,22.70
2017-10-01T05:03:37.169Z,22.27
2017-10-01T05:06:03.823Z,18.23
2017-10-01T05:08:30.471Z,17.33
2017-10-01T05:10:57.143Z,18.10
2017-10-01T05:13:23.813Z,26.53
2017-10-01T05:15:50.508Z,24.53
2017-10-01T05:18:17.404Z,23.57
2017-10-01T05:20:44.049Z,20.07
2017-10-01T05:23:10.703Z,15.83
2017-10-01T05:25:37.628Z,23.80
2017-10-01T05:28:04.278Z,20.47
2017-10-01T05:30:30.954Z,33.10
2017-10-01T05:32:57.633Z,24.97
2017-10-01T05:35:24.305Z,32.40
2017-10-01T05:37:50.964Z,23.80
2017-10-01T05:40:17.781Z,24.97
2017-10-01T05:42:44.432Z,19.13
2017-10-01T05:45:11.083Z,22.43
2017-10-01T05:47:37.745Z,20.40
2017-10-01T05:50:04.397Z,17.70
2017-10-01T05:52:31.394Z,22.70
2017-10-01T05:54:58.044Z,22.57
2017-10-01T05:57:24.687Z,22.93
2017-10-01T05:59:51.643Z,23.03
2017-10-01T06:02:18.292Z,20.10
2017-10-01T06:04:44.943Z,29.80
2017-10-01T06:07:11.751Z,25.67
2017-10-01T06:09:38.393Z,18.87
2017-10-01T06:12:05.076Z,15.90
2017-10-01T06:14:31.748Z,17.63
2017-10-01T06:16:58.435Z,17.43
2017-10-01T06:19:25.465Z,16.83
2017-10-01T06:21:52.116Z,23.70
2017-10-01T06:24:18.760Z,15.00
2017-10-01T06:26:45.695Z,37.43
2017-10-01T06:29:12.346Z,23.33
2017-10-01T06:31:38.999Z,17.60
2017-10-01T06:34:05.713Z,16.63
2017-10-01T06:36:32.360Z,18.63
2017-10-01T06:38:59.008Z,20.30
2017-10-01T06:41:25.685Z,19.47
2017-10-01T06:43:52.380Z,17.53
2017-10-01T06:46:19.028Z,22.43
2017-10-01T06:48:45.674Z,17.60
2017-10-01T06:51:12.347Z,15.23
2017-10-01T06:53:39.005Z,14.23
2017-10-01T06:56:05.672Z,18.83
2017-10-01T06:58:32.317Z,28.70
2017-10-01T07:00:58.994Z,22.80
2017-10-01T07:03:25.657Z,13.93
2017-10-01T07:05:52.331Z,24.43
2017-10-01T07:08:18.975Z,15.10
2017-10-01T07:10:45.645Z,17.73
2017-10-01T07:13:12.463Z,19.30
2017-10-01T07:15:39.112Z,17.73
2017-10-01T07:18:05.774Z,18.63
2017-10-01T07:20:32.448Z,16.60
2017-10-01T07:22:59.088Z,21.30
2017-10-01T07:25:25.754Z,17.07
2017-10-01T07:27:52.408Z,32.83
2017-10-01T07:30:19.371Z,15.97
2017-10-01T07:32:46.030Z,14.97
2017-10-01T07:35:12.675Z,20.03
2017-10-01T07:37:39.345Z,16.83
2017-10-01T07:40:06.003Z,15.10
2017-10-01T07:42:32.688Z,18.20
2017-10-01T07:44:59.332Z,16.83
2017-10-01T07:47:26.008Z,19.70
2017-10-01T07:49:52.681Z,19.10
2017-10-01T07:52:19.328Z,13.47
2017-10-01T07:54:46.008Z,19.23
2017-10-01T07:57:12.652Z,19.43
2017-10-01T07:59:39.304Z,20.40
2017-10-01T08:08:48.946Z,17.47
2017-10-01T08:11:15.596Z,15.50
2017-10-01T08:13:42.261Z,20.70
2017-10-01T08:16:08.907Z,16.07
2017-10-01T08:18:35.725Z,17.90
2017-10-01T08:21:02.375Z,15.97
2017-10-01T08:23:29.019Z,18.33
2017-10-01T08:25:55.968Z,26.50
2017-10-01T08:28:22.631Z,16.87
2017-10-01T08:30:49.276Z,14.53
2017-10-01T08:33:15.957Z,14.63
2017-10-01T08:35:42.609Z,14.30
2017-10-01T08:38:09.270Z,17.70
2017-10-01T08:40:35.936Z,22.37
2017-10-01T08:43:02.584Z,13.73
2017-10-01T08:45:29.236Z,16.50
2017-10-01T08:47:55.911Z,14.47
2017-10-01T08:50:22.560Z,15.87
2017-10-01T08:52:49.225Z,15.90
2017-10-01T08:55:15.880Z,21.70
2017-10-01T08:57:42.571Z,22.93
2017-10-01T09:00:09.228Z,16.50
2017-10-01T09:02:35.905Z,28.80
2017-10-01T09:05:02.716Z,16.53
2017-10-01T09:07:29.374Z,14.40
2017-10-01T09:09:56.024Z,19.33
2017-10-01T09:12:22.692Z,15.00
2017-10-01T09:14:49.340Z,16.70
2017-10-01T09:17:16.340Z,21.63
2017-10-01T09:19:42.983Z,19.97
2017-10-01T09:22:09.636Z,15.30
2017-10-01T09:24:36.316Z,16.77
2017-10-01T09:27:02.965Z,16.93
2017-10-01T09:29:29.636Z,16.10
2017-10-01T09:31:56.292Z,15.77
2017-10-01T09:34:22.960Z,24.80
2017-10-01T09:36:49.604Z,17.83
2017-10-01T09:39:16.300Z,20.10
2017-10-01T09:41:42.981Z,15.73
2017-10-01T09:44:09.632Z,15.43
2017-10-01T09:46:36.846Z,17.23
2017-10-01T09:49:03.486Z,19.13
2017-10-01T09:51:30.136Z,15.70
2017-10-01T09:53:57.174Z,16.20
2017-10-01T09:56:23.825Z,18.43
2017-10-01T09:58:50.468Z,15.00
2017-10-01T10:01:17.406Z,38.30
2017-10-01T10:03:44.052Z,19.07
2017-10-01T10:06:10.697Z,17.50
2017-10-01T10:08:37.371Z,15.90
2017-10-01T10:11:04.015Z,17.50
2017-10-01T10:13:30.668Z,22.63
2017-10-01T10:15:57.339Z,25.27
2017-10-01T10:18:24.260Z,28.47
2017-10-01T10:20:50.915Z,22.90
2017-10-01T10:23:17.563Z,16.20
2017-10-01T10:25:44.646Z,24.50
2017-10-01T10:28:11.304Z,19.80
2017-10-01T10:30:37.965Z,17.97
2017-10-01T10:33:04.862Z,18.27
2017-10-01T10:35:31.506Z,15.60
2017-10-01T10:37:58.145Z,15.97
2017-10-01T10:40:24.818Z,20.77
2017-10-01T10:42:51.502Z,22.17
2017-10-01T10:45:18.148Z,15.87
2017-10-01T10:47:45.007Z,23.20
2017-10-01T10:50:11.661Z,18.23
2017-10-01T10:52:38.314Z,19.90
2017-10-01T10:55:04.984Z,17.70
2017-10-01T10:57:31.633Z,23.43
2017-10-01T10:59:58.625Z,22.70
2017-10-01T11:02:25.370Z,18.63
2017-10-01T11:04:52.020Z,17.83
2017-10-01T11:07:18.708Z,18.97
2017-10-01T11:09:45.353Z,21.03
2017-10-01T11:12:12.243Z,19.47
2017-10-01T11:14:38.888Z,20.27
2017-10-01T11:17:05.532Z,18.93
2017-10-01T11:19:32.196Z,23.47
2017-10-01T11:21:58.850Z,19.37
2017-10-01T11:24:25.540Z,16.83
2017-10-01T11:26:52.189Z,25.93
2017-10-01T11:29:18.856Z,19.17
2017-10-01T11:31:45.504Z,19.33
2017-10-01T11:34:12.184Z,21.43
2017-10-01T11:36:38.864Z,22.93
2017-10-01T11:39:05.541Z,20.00
2017-10-01T11:41:32.184Z,27.90
2017-10-01T11:43:58.855Z,21.90
2017-10-01T11:46:25.892Z,16.30
2017-10-01T11:48:52.537Z,17.33
2017-10-01T11:51:19.188Z,19.80
2017-10-01T11:53:45.859Z,20.53
2017-10-01T11:56:12.507Z,22.63
2017-10-01T11:58:39.163Z,17.73
2017-10-01T12:01:05.842Z,22.77
2017-10-01T12:03:32.517Z,23.47
2017-10-01T12:05:59.165Z,18.27
2017-10-01T12:08:25.836Z,19.53
2017-10-01T12:10:52.516Z,18.33
2017-10-01T12:13:19.158Z,18.70
2017-10-01T12:15:45.810Z,18.73
2017-10-01T12:18:12.971Z,21.27
2017-10-01T12:20:39.815Z,17.90
2017-10-01T12:23:06.662Z,19.37
2017-10-01T12:25:33.372Z,21.53
2017-10-01T12:28:00.017Z,20.57
2017-10-01T12:30:26.702Z,19.37
2017-10-01T12:32:53.340Z,18.83
2017-10-01T12:35:20.007Z,20.17
2017-10-01T12:37:46.658Z,23.00
2017-10-01T12:40:13.355Z,21.53
2017-10-01T12:42:40.004Z,17.23
2017-10-01T12:45:06.735Z,32.70
2017-10-01T12:47:33.451Z,22.47
2017-10-01T12:50:00.107Z,23.60
2017-10-01T12:52:26.783Z,70.90
2017-10-01T12:54:53.455Z,20.30
2017-10-01T12:57:20.115Z,19.63
2017-10-01T12:59:46.783Z,19.63
2017-10-01T13:02:13.444Z,19.77
2017-10-01T13:04:40.371Z,25.63
2017-10-01T13:07:07.043Z,28.73
2017-10-01T13:09:33.733Z,23.03
2017-10-01T13:12:00.408Z,20.00
2017-10-01T13:14:27.220Z,21.67
2017-10-01T13:16:53.873Z,21.47
2017-10-01T13:19:20.531Z,25.83
2017-10-01T13:21:47.204Z,20.67
2017-10-01T13:24:13.851Z,19.53
2017-10-01T13:26:40.651Z,19.33
2017-10-01T13:29:07.315Z,16.67
2017-10-01T13:31:33.967Z,21.10
2017-10-01T13:34:00.660Z,23.23
2017-10-01T13:36:27.315Z,21.53
2017-10-01T13:38:53.958Z,23.20
2017-10-01T13:41:20.630Z,18.47
2017-10-01T13:43:47.433Z,20.53
2017-10-01T13:46:14.083Z,26.73
2017-10-01T13:48:40.741Z,20.47
2017-10-01T13:51:07.407Z,25.30
2017-10-01T13:53:34.080Z,19.00
2017-10-01T13:56:00.724Z,20.47
2017-10-01T13:58:27.589Z,21.80
2017-10-01T14:00:54.339Z,23.90
2017-10-01T14:03:20.984Z,21.13
2017-10-01T14:05:47.652Z,18.60
2017-10-01T14:08:14.302Z,24.90
2017-10-01T14:10:41.104Z,31.13
2017-10-01T14:13:07.758Z,23.63
2017-10-01T14:15:34.406Z,18.57
2017-10-01T14:18:01.085Z,21.37
2017-10-01T14:20:27.744Z,18.77
2017-10-01T14:22:54.409Z,17.47
2017-10-01T14:25:21.084Z,17.03
2017-10-01T14:27:47.768Z,16.53
2017-10-01T14:30:14.416Z,16.40
2017-10-01T14:32:41.075Z,15.57
2017-10-01T14:35:08.118Z,15.60
2017-10-01T14:37:34.762Z,19.13
2017-10-01T14:40:02.298Z,13.73
2017-10-01T14:42:29.623Z,17.63
2017-10-01T14:44:56.283Z,16.33
2017-10-01T14:47:22.992Z,15.00
2017-10-01T14:49:49.641Z,16.23
2017-10-01T14:52:16.291Z,14.93
2017-10-01T14:54:42.967Z,15.00
2017-10-01T14:57:09.607Z,15.00
2017-10-01T14:59:36.477Z,12.87
2017-10-01T15:02:03.125Z,13.97
2017-10-01T15:04:29.806Z,20.17
2017-10-01T15:06:56.465Z,12.70
2017-10-01T15:09:23.141Z,14.53
2017-10-01T15:11:49.783Z,12.43
2017-10-01T15:14:16.448Z,25.10
2017-10-01T15:16:43.116Z,17.03
2017-10-01T15:19:09.790Z,12.03
2017-10-01T15:21:36.455Z,11.77
2017-10-01T15:24:03.500Z,11.33
2017-10-01T15:26:30.244Z,10.27
2017-10-01T15:28:56.904Z,10.70
2017-10-01T15:31:23.589Z,12.17
2017-10-01T15:33:50.267Z,16.47
2017-10-01T15:36:16.957Z,16.13
2017-10-01T15:38:43.616Z,13.90
2017-10-01T15:41:10.300Z,12.87
2017-10-01T15:43:36.940Z,12.20
2017-10-01T15:46:03.588Z,15.60
2017-10-01T15:48:30.278Z,11.80
2017-10-01T15:50:56.924Z,11.70
2017-10-01T15:53:23.595Z,14.07
2017-10-01T15:55:50.241Z,15.47
2017-10-01T15:58:16.914Z,12.93
2017-10-01T16:00:43.563Z,13.77
2017-10-01T16:03:10.570Z,15.70
2017-10-01T16:05:37.217Z,12.50
2017-10-01T16:08:03.875Z,13.33
2017-10-01T16:10:30.585Z,10.93
2017-10-01T16:12:57.233Z,17.77
2017-10-01T16:15:23.896Z,14.13
2017-10-01T16:17:50.571Z,14.63
2017-10-01T16:20:17.246Z,25.87
2017-10-01T16:22:43.921Z,26.53
2017-10-01T16:25:10.564Z,22.07
2017-10-01T16:27:37.489Z,16.27
2017-10-01T16:30:04.145Z,16.90
2017-10-01T16:32:30.791Z,15.40
2017-10-01T16:34:57.513Z,18.40
2017-10-01T16:37:24.188Z,15.90
2017-10-01T16:39:51.120Z,17.73
2017-10-01T16:42:18.628Z,20.13
2017-10-01T16:44:45.933Z,15.97
2017-10-01T16:47:12.608Z,23.43
2017-10-01T16:49:39.264Z,14.20
2017-10-01T16:52:05.938Z,13.33
2017-10-01T16:54:32.591Z,13.70
2017-10-01T16:56:59.619Z,17.20
2017-10-01T16:59:26.275Z,18.20
2017-10-01T17:01:52.920Z,21.53
2017-10-01T17:04:19.597Z,19.50
2017-10-01T17:06:46.272Z,20.90
2017-10-01T17:09:12.920Z,19.83
2017-10-01T17:11:40.470Z,17.10
2017-10-01T17:14:07.125Z,22.53
2017-10-01T17:16:34.089Z,17.60
2017-10-01T17:19:00.742Z,18.40
2017-10-01T17:21:27.401Z,19.00
2017-10-01T17:23:54.101Z,18.63
2017-10-01T17:26:21.120Z,24.00
2017-10-01T17:28:48.006Z,25.13
2017-10-01T17:31:14.753Z,21.10
2017-10-01T17:33:41.919Z,93.93
2017-10-01T17:36:08.601Z,154.60
2017-10-01T17:38:35.253Z,33.07
2017-10-01T17:41:01.937Z,20.43
2017-10-01T17:43:28.589Z,25.43
2017-10-01T17:45:55.264Z,17.67
2017-10-01T17:48:21.915Z,18.70
2017-10-01T17:50:48.591Z,19.87
2017-10-01T17:53:15.239Z,20.83
2017-10-01T17:55:42.085Z,19.63
2017-10-01T17:58:08.740Z,28.83
2017-10-01T18:00:35.400Z,22.97
2017-10-01T18:03:02.065Z,22.77
2017-10-01T18:05:28.739Z,23.80
2017-10-01T18:07:55.597Z,24.13
2017-10-01T18:10:22.247Z,28.50
2017-10-01T18:12:48.900Z,31.30
2017-10-01T18:15:15.772Z,29.60
2017-10-01T18:17:42.444Z,30.47
2017-10-01T18:20:09.101Z,23.57
2017-10-01T18:22:35.784Z,28.83
2017-10-01T18:25:02.631Z,33.83
2017-10-01T18:27:29.550Z,36.23
2017-10-01T18:29:56.255Z,44.40
2017-10-01T18:32:23.126Z,42.10
2017-10-01T18:34:50.060Z,33.07
2017-10-01T18:37:16.729Z,37.70
2017-10-01T18:39:43.487Z,40.13
2017-10-01T18:42:10.265Z,36.73
2017-10-01T18:44:36.914Z,33.97
2017-10-01T18:47:03.563Z,41.13
2017-10-01T18:49:30.427Z,37.97
2017-10-01T18:51:57.206Z,61.67
2017-10-01T18:54:23.852Z,60.07
2017-10-01T18:56:51.065Z,36.37
2017-10-01T18:59:17.888Z,40.30
2017-10-01T19:01:44.537Z,39.47
2017-10-01T19:04:11.502Z,38.30
2017-10-01T19:06:38.189Z,35.50
2017-10-01T19:09:04.869Z,30.50
2017-10-01T19:11:31.536Z,33.63
2017-10-01T19:13:58.182Z,35.43
2017-10-01T19:16:24.828Z,36.40
2017-10-01T19:18:51.554Z,38.13
2017-10-01T19:21:18.206Z,29.13
2017-10-01T19:23:44.893Z,38.70
2017-10-01T19:26:11.598Z,40.77
2017-10-01T19:28:38.250Z,33.57
2017-10-01T19:31:05.040Z,32.17
2017-10-01T19:33:31.906Z,42.60
2017-10-01T19:35:58.554Z,45.17
2017-10-01T19:38:25.496Z,51.90
2017-10-01T19:40:52.189Z,40.00
2017-10-01T19:43:18.932Z,36.17
2017-10-01T19:45:45.609Z,45.27
2017-10-01T19:48:12.296Z,37.30
2017-10-01T19:50:38.966Z,34.93
2017-10-01T19:53:05.631Z,36.00
2017-10-01T19:55:32.597Z,32.80
2017-10-01T19:57:59.257Z,36.23
2017-10-01T20:00:25.936Z,40.67
2017-10-01T20:02:52.815Z,40.37
2017-10-01T20:05:19.476Z,34.53
2017-10-01T20:07:46.128Z,31.80
2017-10-01T20:10:12.787Z,40.47
2017-10-01T20:12:39.441Z,31.53
2017-10-01T20:15:06.114Z,32.63
2017-10-01T20:17:32.768Z,30.50
2017-10-01T20:19:59.480Z,27.40
2017-10-01T20:22:26.159Z,29.50
2017-10-01T20:24:53.102Z,41.50
2017-10-01T20:27:19.748Z,39.43
2017-10-01T20:29:46.417Z,33.40
2017-10-01T20:32:13.094Z,29.87
2017-10-01T20:34:39.969Z,29.20
2017-10-01T20:37:06.625Z,30.20
2017-10-01T20:39:33.267Z,31.47
2017-10-01T20:42:00.124Z,37.90
2017-10-01T20:44:26.812Z,34.60
2017-10-01T20:46:53.457Z,29.87
2017-10-01T20:49:20.135Z,29.63
2017-10-01T20:51:46.785Z,32.33
2017-10-01T20:54:13.424Z,30.97
2017-10-01T20:56:40.099Z,28.67
2017-10-01T20:59:06.756Z,34.40
2017-10-01T21:01:33.440Z,24.43
2017-10-01T21:04:00.096Z,38.00
2017-10-01T21:06:26.744Z,26.63
2017-10-01T21:08:53.417Z,36.13
2017-10-01T21:11:20.064Z,28.00
2017-10-01T21:13:46.728Z,28.00
2017-10-01T21:16:13.392Z,33.77
2017-10-01T21:18:40.056Z,27.13
2017-10-01T21:21:06.712Z,35.40
2017-10-01T21:23:33.364Z,28.13
2017-10-01T21:26:00.049Z,31.63
2017-10-01T21:28:26.785Z,26.37
2017-10-01T21:30:53.455Z,36.97
2017-10-01T21:33:20.117Z,37.07
2017-10-01T21:35:46.757Z,34.30
2017-10-01T21:38:13.428Z,36.40
2017-10-01T21:40:40.076Z,30.40
2017-10-01T21:43:06.754Z,35.10
2017-10-01T21:45:33.406Z,58.63
2017-10-01T21:48:00.422Z,33.30
2017-10-01T21:50:27.068Z,35.23
2017-10-01T21:52:53.711Z,28.80
2017-10-01T21:55:20.400Z,43.17
2017-10-01T21:57:47.053Z,34.27
2017-10-01T22:00:13.728Z,39.10
2017-10-01T22:02:40.473Z,36.93
2017-10-01T22:05:07.162Z,35.33
2017-10-01T22:07:33.833Z,34.83
2017-10-01T22:10:00.479Z,35.77
2017-10-01T22:12:27.148Z,38.20
2017-10-01T22:14:53.820Z,34.30
2017-10-01T22:17:20.502Z,35.33
2017-10-01T22:19:47.160Z,35.57
2017-10-01T22:22:13.975Z,38.90
2017-10-01T22:24:40.629Z,36.30
2017-10-01T22:27:07.282Z,38.83
2017-10-01T22:29:33.948Z,35.70
2017-10-01T22:32:00.608Z,33.47
2017-10-01T22:34:27.275Z,37.00
2017-10-01T22:36:53.923Z,36.10
2017-10-01T22:39:20.695Z,38.77
2017-10-01T22:41:47.348Z,38.77
2017-10-01T22:44:14.028Z,44.23
2017-10-01T22:46:40.671Z,33.70
2017-10-01T22:49:07.485Z,46.47
2017-10-01T22:51:34.136Z,43.17
2017-10-01T22:54:00.788Z,42.27
2017-10-01T22:56:27.460Z,37.30
2017-10-01T22:58:54.644Z,40.20
2017-10-01T23:01:21.314Z,42.20
2017-10-01T23:03:47.967Z,46.43
2017-10-01T23:06:14.612Z,48.97
2017-10-01T23:08:41.287Z,41.73
2017-10-01T23:11:07.944Z,48.80
2017-10-01T23:13:34.592Z,52.37
2017-10-01T23:16:01.263Z,56.07
2017-10-01T23:18:28.180Z,44.23
2017-10-01T23:20:54.824Z,58.90
2017-10-01T23:23:21.474Z,45.53
2017-10-01T23:25:48.147Z,53.17
2017-10-01T23:28:14.797Z,46.20
2017-10-01T23:30:41.457Z,51.20
2017-10-01T23:33:08.142Z,49.40
2017-10-01T23:35:34.824Z,54.97
2017-10-01T23:38:01.476Z,56.60
2017-10-01T23:40:28.149Z,67.70
2017-10-01T23:42:54.801Z,59.23
2017-10-01T23:45:21.449Z,69.77
2017-10-01T23:47:48.111Z,62.90
2017-10-01T23:50:15.011Z,58.80
2017-10-01T23:52:41.663Z,76.07
2017-10-01T23:55:08.315Z,76.73
2017-10-01T23:57:35.252Z,79.63
